Estación Meteorológica Peña el Pijo (Robertgarden) [ 12/10/18 11:24:38 CET ]

Fecha Hora Presion(HPa) Temp (°C) Humedad % Rocio (°C) Viento ( m/s) Direccion Lluvia 1Hora(mm) Lluvia 24H(mm) LLuvia Total(mm)
2018-Apr-02 01:01:34 1003.300 4.8 65 -1.2         185.44
2018-Apr-02 02:01:47 1002.900 4.3 67 -1.3         185.44
2018-Apr-02 03:01:42 1002.300 4.1 70 -0.9         185.44
2018-Apr-02 04:01:41 1001.600 3.8 72 -0.8         185.44
2018-Apr-02 05:05:34 1001.300 3.6 73 -0.8         185.44
2018-Apr-02 06:01:41 1000.800 3.5 74 -0.7         185.44
2018-Apr-02 07:01:55 1000.700 3.8 75 -0.2         185.44
2018-Apr-02 08:02:03 1000.500 3.8 75 -0.2         185.44
2018-Apr-02 09:01:44 1000.500 4.4 75 0.3         185.44
2018-Apr-02 10:01:59 1000.400 6.6 72 1.9         185.44
2018-Apr-02 11:01:47 1000.800 11.1 60 3.6         185.44
2018-Apr-02 12:01:48 1000.600 16.8 44 4.4         185.44
2018-Apr-02 13:01:49 1000.100 18.6 38 3.9 1.8 SSE     185.44
2018-Apr-02 14:01:51 999.400 20.2 34 3.7         185.44
2018-Apr-02 15:01:52 999.300 21.6 32 4.2 0.9 SE     185.44
2018-Apr-02 16:01:47 999.000 21.0 32 3.6         185.44
2018-Apr-02 17:01:47 998.100 21.2 32 3.8         185.44
2018-Apr-02 18:01:46 998.100 21.9 32 4.4         185.44
2018-Apr-02 19:01:45 998.400 19.5 33 2.7         185.44
2018-Apr-02 20:01:50 999.000 16.4 39 2.4         185.44
2018-Apr-02 21:01:52 999.500 13.9 46 2.4         185.44
2018-Apr-02 22:02:01 1000.400 12.1 53 2.8         185.44
2018-Apr-02 23:02:00 1001.100 10.4 59 2.7         185.44

Temperatura Máxima:21°    Temperatura Mínima:
Presión Máxima:1003.300 Hpa    Presión Mínima:998.100 Hpa


Volver